Time;durP1;ratioP1;P1;durP2;ratioP2;P2;SDS_P1;SDS_P2;PMS_P1;PMS_P2;Temp;Humidity;BMP_temperature;BMP_pressure;BME280_temperature;BME280_humidity;BME280_pressure;Samples;Min_cycle;Max_cycle;Signal;HPM_P1;HPM_P2
2022/03/24 00:02:15;;;;;;;26.50;17.03;;;;;;;;;;5112508;28;20249;-71
2022/03/24 00:04:43;;;;;;;25.40;18.13;;;;;;;;;;5115216;28;20201;-71
2022/03/24 00:07:11;;;;;;;22.97;19.27;;;;;;;;;;5114766;28;20622;-71
2022/03/24 00:09:39;;;;;;;23.10;16.70;;;;;;;;;;5115275;28;20620;-72
2022/03/24 00:12:08;;;;;;;21.47;15.50;;;;;;;;;;5115210;28;20220;-71
2022/03/24 00:14:38;;;;;;;24.27;15.57;;;;;;;;;;5113995;28;20291;-72
2022/03/24 00:17:07;;;;;;;24.43;15.00;;;;;;;;;;5110556;28;20304;-70
2022/03/24 00:19:35;;;;;;;26.50;15.87;;;;;;;;;;5107458;28;20232;-71
2022/03/24 00:22:03;;;;;;;24.47;15.50;;;;;;;;;;5107036;28;20649;-71
2022/03/24 00:24:31;;;;;;;27.33;16.37;;;;;;;;;;5104139;28;20361;-71
2022/03/24 00:26:59;;;;;;;24.60;17.03;;;;;;;;;;5107245;28;20249;-71
2022/03/24 00:29:27;;;;;;;22.73;15.27;;;;;;;;;;5116652;28;20292;-70
2022/03/24 00:31:57;;;;;;;23.40;17.03;;;;;;;;;;5099642;28;20279;-71
2022/03/24 00:34:25;;;;;;;22.30;15.43;;;;;;;;;;5110289;28;20228;-71
2022/03/24 00:36:52;;;;;;;25.80;16.90;;;;;;;;;;5109148;28;20299;-71
2022/03/24 00:39:20;;;;;;;22.47;15.37;;;;;;;;;;5106014;28;20280;-70
2022/03/24 00:41:48;;;;;;;23.50;17.50;;;;;;;;;;5112439;28;20688;-71
2022/03/24 00:44:19;;;;;;;29.33;17.47;;;;;;;;;;5108828;28;20660;-71
2022/03/24 00:46:47;;;;;;;27.07;16.93;;;;;;;;;;5109727;28;20299;-71
2022/03/24 00:49:17;;;;;;;26.07;18.43;;;;;;;;;;5109433;28;20280;-70
2022/03/24 00:51:45;;;;;;;25.13;17.60;;;;;;;;;;5114332;28;20751;-71
2022/03/24 00:54:13;;;;;;;26.87;17.83;;;;;;;;;;5104319;28;20283;-70
2022/03/24 00:56:41;;;;;;;24.60;17.53;;;;;;;;;;5105956;28;20647;-70
2022/03/24 00:59:10;;;;;;;26.77;18.27;;;;;;;;;;5105518;28;20263;-70
2022/03/24 01:01:39;;;;;;;24.97;17.43;;;;;;;;;;5113251;28;20284;-71
2022/03/24 01:04:07;;;;;;;24.60;16.47;;;;;;;;;;5102419;28;20221;-71
2022/03/24 01:06:37;;;;;;;28.40;17.03;;;;;;;;;;5101427;28;20308;-71
2022/03/24 01:09:05;;;;;;;23.90;16.23;;;;;;;;;;5104125;28;20236;-71
2022/03/24 01:11:34;;;;;;;23.77;16.50;;;;;;;;;;5112343;28;20225;-71
2022/03/24 01:14:05;;;;;;;28.33;17.23;;;;;;;;;;5112207;28;20228;-70
2022/03/24 01:16:34;;;;;;;27.10;15.60;;;;;;;;;;5108326;28;20648;-71
2022/03/24 01:19:02;;;;;;;22.57;16.27;;;;;;;;;;5109241;28;20211;-70
2022/03/24 01:21:31;;;;;;;25.37;15.87;;;;;;;;;;5109418;28;20229;-71
2022/03/24 01:24:01;;;;;;;22.63;15.27;;;;;;;;;;5110928;28;20712;-70
2022/03/24 01:26:29;;;;;;;25.63;15.47;;;;;;;;;;5101207;28;20260;-70
2022/03/24 01:28:58;;;;;;;23.13;14.70;;;;;;;;;;5107980;28;20277;-70
2022/03/24 01:31:26;;;;;;;24.30;14.20;;;;;;;;;;5103197;28;20292;-71
2022/03/24 01:33:54;;;;;;;23.63;13.63;;;;;;;;;;5112712;28;20193;-71
2022/03/24 01:36:22;;;;;;;21.37;12.73;;;;;;;;;;5102767;28;20260;-70
2022/03/24 01:38:50;;;;;;;20.07;13.63;;;;;;;;;;5108417;28;20232;-70
2022/03/24 01:41:22;;;;;;;16.33;12.20;;;;;;;;;;5104158;28;20232;-71
2022/03/24 01:43:50;;;;;;;19.20;12.63;;;;;;;;;;5107897;28;20213;-71
2022/03/24 01:46:22;;;;;;;18.07;11.30;;;;;;;;;;5113836;28;20643;-70
2022/03/24 01:48:50;;;;;;;17.13;10.50;;;;;;;;;;5116629;28;20609;-70
2022/03/24 01:51:18;;;;;;;12.37;9.63;;;;;;;;;;5107975;28;20233;-71
2022/03/24 01:53:46;;;;;;;15.77;9.53;;;;;;;;;;5112917;28;20631;-70
2022/03/24 01:56:15;;;;;;;13.17;9.03;;;;;;;;;;5115591;28;20308;-70
2022/03/24 01:58:45;;;;;;;12.73;9.23;;;;;;;;;;5115906;28;20259;-70
2022/03/24 02:01:34;;;;;;;18.63;10.13;;;;;;;;;;5104897;28;20240;-71
2022/03/24 02:04:05;;;;;;;17.40;9.67;;;;;;;;;;5113680;28;20254;-70
2022/03/24 02:06:33;;;;;;;13.83;9.70;;;;;;;;;;5113975;28;20719;-71
2022/03/24 02:09:01;;;;;;;13.73;8.83;;;;;;;;;;5104257;28;20221;-70
2022/03/24 02:11:29;;;;;;;13.10;9.53;;;;;;;;;;5112828;28;20204;-71
2022/03/24 02:13:59;;;;;;;14.87;10.07;;;;;;;;;;5112560;28;20229;-71
2022/03/24 02:16:34;;;;;;;18.37;11.07;;;;;;;;;;5116279;28;20255;-71
2022/03/24 02:19:12;;;;;;;14.93;11.10;;;;;;;;;;5117397;28;20205;-71
2022/03/24 02:21:40;;;;;;;23.20;12.57;;;;;;;;;;5116190;28;20232;-71
2022/03/24 02:24:10;;;;;;;19.37;11.83;;;;;;;;;;5109602;28;20253;-71
2022/03/24 02:26:40;;;;;;;17.17;12.33;;;;;;;;;;5114493;28;20220;-71
2022/03/24 02:29:08;;;;;;;19.30;12.03;;;;;;;;;;5110009;28;20605;-71
2022/03/24 02:31:37;;;;;;;18.03;12.33;;;;;;;;;;5104356;28;20240;-71
2022/03/24 02:36:52;;;;;;;22.07;12.13;;;;;;;;;;5111065;28;20304;-71
2022/03/24 02:39:21;;;;;;;25.40;13.23;;;;;;;;;;5113460;28;20284;-71
2022/03/24 02:41:51;;;;;;;24.10;15.20;;;;;;;;;;5104644;28;20280;-71
2022/03/24 02:44:19;;;;;;;21.93;14.87;;;;;;;;;;5103601;28;20281;-71
2022/03/24 02:46:48;;;;;;;22.70;14.27;;;;;;;;;;5114072;28;20260;-71
2022/03/24 02:49:16;;;;;;;21.83;15.87;;;;;;;;;;5115149;28;20204;-71
2022/03/24 02:51:44;;;;;;;21.97;15.33;;;;;;;;;;5112258;28;20711;-70
2022/03/24 02:54:13;;;;;;;20.43;14.27;;;;;;;;;;5107720;28;20646;-71
2022/03/24 02:56:42;;;;;;;22.20;16.03;;;;;;;;;;5114338;28;20260;-71
2022/03/24 02:59:12;;;;;;;25.63;15.40;;;;;;;;;;5115304;28;20324;-71
2022/03/24 03:01:41;;;;;;;23.40;16.20;;;;;;;;;;5119384;28;20256;-72
2022/03/24 03:04:09;;;;;;;22.60;14.43;;;;;;;;;;5116012;28;20217;-72
2022/03/24 03:06:38;;;;;;;25.23;15.47;;;;;;;;;;5110352;28;20253;-72
2022/03/24 03:09:07;;;;;;;22.33;15.43;;;;;;;;;;5110935;28;20642;-71
2022/03/24 03:11:35;;;;;;;22.67;15.27;;;;;;;;;;5107352;28;20236;-72
2022/03/24 03:14:04;;;;;;;23.20;14.77;;;;;;;;;;5109420;28;20247;-71
2022/03/24 03:16:33;;;;;;;22.13;13.83;;;;;;;;;;5112382;28;20296;-72
2022/03/24 03:19:01;;;;;;;22.00;13.80;;;;;;;;;;5109082;28;20905;-71
2022/03/24 03:21:29;;;;;;;23.97;14.53;;;;;;;;;;5107860;28;20197;-72
2022/03/24 03:23:58;;;;;;;23.07;14.07;;;;;;;;;;5105175;28;20274;-72
2022/03/24 03:26:26;;;;;;;20.90;14.13;;;;;;;;;;5107685;28;20281;-72
2022/03/24 03:28:54;;;;;;;16.87;12.80;;;;;;;;;;5107725;28;20200;-72
2022/03/24 03:31:25;;;;;;;18.87;13.57;;;;;;;;;;5108145;28;20732;-72
2022/03/24 03:33:53;;;;;;;22.97;14.77;;;;;;;;;;5108644;28;20203;-72
2022/03/24 03:36:22;;;;;;;22.37;14.50;;;;;;;;;;5108849;28;20244;-72
2022/03/24 03:38:50;;;;;;;20.20;13.83;;;;;;;;;;5107176;28;20200;-72
2022/03/24 03:41:20;;;;;;;23.30;14.30;;;;;;;;;;5108062;28;20201;-72
2022/03/24 03:43:51;;;;;;;25.67;15.10;;;;;;;;;;5109084;28;20240;-72
2022/03/24 03:46:19;;;;;;;19.30;14.37;;;;;;;;;;5110642;28;20276;-71
2022/03/24 03:48:51;;;;;;;23.03;14.33;;;;;;;;;;5106678;28;20276;-71
2022/03/24 03:51:19;;;;;;;24.00;14.37;;;;;;;;;;5109002;28;20235;-71
2022/03/24 03:53:48;;;;;;;20.50;13.70;;;;;;;;;;5110933;28;20251;-72
2022/03/24 03:56:16;;;;;;;24.13;14.57;;;;;;;;;;5109692;28;20680;-71
2022/03/24 03:58:44;;;;;;;24.43;13.93;;;;;;;;;;5110660;28;20274;-72
2022/03/24 04:01:12;;;;;;;21.80;12.93;;;;;;;;;;5110661;28;20312;-71
2022/03/24 04:03:41;;;;;;;18.10;13.57;;;;;;;;;;5108273;28;20197;-71
2022/03/24 04:06:12;;;;;;;21.03;14.13;;;;;;;;;;5106348;28;20557;-72
2022/03/24 04:08:44;;;;;;;25.43;14.77;;;;;;;;;;5107464;28;20283;-71
2022/03/24 04:11:13;;;;;;;18.73;13.03;;;;;;;;;;5108621;28;20229;-71
2022/03/24 04:13:42;;;;;;;16.47;12.30;;;;;;;;;;5107418;28;20291;-71
2022/03/24 04:16:12;;;;;;;21.30;13.73;;;;;;;;;;5111784;28;20650;-71
2022/03/24 04:18:40;;;;;;;20.27;12.83;;;;;;;;;;5102795;28;20570;-71
2022/03/24 04:21:09;;;;;;;22.33;13.83;;;;;;;;;;5113160;28;20284;-71
2022/03/24 04:23:39;;;;;;;21.20;13.43;;;;;;;;;;5113687;28;20197;-71
2022/03/24 04:26:07;;;;;;;19.60;14.00;;;;;;;;;;5112825;28;20252;-71
2022/03/24 04:28:35;;;;;;;20.93;13.70;;;;;;;;;;5101800;28;20247;-71
2022/03/24 04:31:03;;;;;;;21.23;13.77;;;;;;;;;;5111867;28;20273;-71
2022/03/24 04:33:31;;;;;;;19.73;13.67;;;;;;;;;;5111797;28;20200;-72
2022/03/24 04:35:59;;;;;;;19.27;13.60;;;;;;;;;;5117059;28;20304;-72
2022/03/24 04:38:28;;;;;;;25.60;14.20;;;;;;;;;;5100978;28;20287;-72
2022/03/24 04:40:57;;;;;;;19.17;13.70;;;;;;;;;;5110734;28;20276;-72
2022/03/24 04:43:25;;;;;;;24.43;15.03;;;;;;;;;;5112446;28;20703;-72
2022/03/24 04:45:53;;;;;;;22.17;14.27;;;;;;;;;;5113144;28;20229;-72
2022/03/24 04:48:21;;;;;;;24.60;14.73;;;;;;;;;;5112497;28;20563;-72
2022/03/24 04:50:50;;;;;;;20.63;14.60;;;;;;;;;;5113296;28;20280;-72
2022/03/24 04:53:18;;;;;;;19.00;14.20;;;;;;;;;;5103127;28;20229;-71
2022/03/24 04:55:47;;;;;;;19.87;13.43;;;;;;;;;;5101411;28;20300;-71
2022/03/24 04:58:16;;;;;;;21.30;13.70;;;;;;;;;;5103878;28;20228;-72
2022/03/24 05:00:44;;;;;;;17.40;12.27;;;;;;;;;;5112800;28;20637;-72
2022/03/24 05:03:12;;;;;;;19.77;12.53;;;;;;;;;;5112981;28;20205;-72
2022/03/24 05:05:40;;;;;;;16.00;11.53;;;;;;;;;;5104242;28;20221;-72
2022/03/24 05:08:09;;;;;;;18.13;12.63;;;;;;;;;;5105847;28;20293;-71
2022/03/24 05:10:37;;;;;;;22.37;13.37;;;;;;;;;;5112190;28;20209;-72
2022/03/24 05:13:06;;;;;;;17.73;12.63;;;;;;;;;;5112716;28;20235;-72
2022/03/24 05:15:36;;;;;;;17.57;12.17;;;;;;;;;;5109533;28;20305;-72
2022/03/24 05:18:05;;;;;;;19.47;12.50;;;;;;;;;;5110736;28;20232;-71
2022/03/24 05:20:33;;;;;;;18.47;13.10;;;;;;;;;;5110345;28;20243;-71
2022/03/24 05:23:02;;;;;;;20.70;13.27;;;;;;;;;;5103586;28;20632;-72
2022/03/24 05:25:30;;;;;;;18.10;13.30;;;;;;;;;;5111212;27;20305;-71
2022/03/24 05:27:59;;;;;;;25.80;13.67;;;;;;;;;;5114823;28;20232;-70
2022/03/24 05:30:27;;;;;;;23.03;14.03;;;;;;;;;;5114921;28;20204;-71
2022/03/24 05:32:57;;;;;;;20.03;13.30;;;;;;;;;;5112424;28;20229;-70
2022/03/24 05:35:25;;;;;;;26.17;14.47;;;;;;;;;;5114651;28;20248;-71
2022/03/24 05:37:53;;;;;;;28.27;14.47;;;;;;;;;;5111855;28;20228;-70
2022/03/24 05:40:21;;;;;;;20.93;14.90;;;;;;;;;;5113386;28;20275;-72
2022/03/24 05:42:49;;;;;;;23.97;15.27;;;;;;;;;;5115331;28;20232;-73
2022/03/24 05:45:17;;;;;;;21.67;14.73;;;;;;;;;;5113609;28;20747;-73
2022/03/24 05:47:45;;;;;;;24.77;14.73;;;;;;;;;;5114941;28;20702;-71
2022/03/24 05:50:15;;;;;;;21.07;14.90;;;;;;;;;;5116663;28;20224;-72
2022/03/24 05:52:43;;;;;;;24.03;16.10;;;;;;;;;;5114018;28;20285;-72
2022/03/24 05:55:11;;;;;;;24.10;14.70;;;;;;;;;;5113105;28;20229;-72
2022/03/24 05:57:40;;;;;;;19.93;14.50;;;;;;;;;;5113389;28;20285;-73
2022/03/24 06:00:08;;;;;;;21.63;14.90;;;;;;;;;;5112696;28;20296;-72
2022/03/24 06:02:37;;;;;;;24.00;15.00;;;;;;;;;;5109985;28;20296;-72
2022/03/24 06:05:09;;;;;;;25.07;15.83;;;;;;;;;;5113916;28;20613;-72
2022/03/24 06:07:39;;;;;;;21.47;15.27;;;;;;;;;;5113476;28;20232;-71
2022/03/24 06:10:08;;;;;;;21.93;15.77;;;;;;;;;;5114652;28;20225;-71
2022/03/24 06:12:37;;;;;;;26.43;15.57;;;;;;;;;;5111080;28;20238;-72
2022/03/24 06:15:05;;;;;;;30.67;17.67;;;;;;;;;;5108365;28;20233;-71
2022/03/24 06:17:33;;;;;;;26.27;17.30;;;;;;;;;;5109741;28;20281;-73
2022/03/24 06:20:02;;;;;;;23.40;16.40;;;;;;;;;;5111892;28;20240;-72
2022/03/24 06:22:31;;;;;;;26.50;16.43;;;;;;;;;;5108034;28;20247;-72
2022/03/24 06:25:00;;;;;;;25.73;16.27;;;;;;;;;;5108932;28;20233;-72
2022/03/24 06:27:28;;;;;;;20.03;15.43;;;;;;;;;;5109183;28;20208;-71
2022/03/24 06:29:56;;;;;;;28.57;16.87;;;;;;;;;;5112210;28;20220;-72
2022/03/24 06:32:24;;;;;;;24.80;16.57;;;;;;;;;;5115200;28;20229;-75
2022/03/24 06:34:52;;;;;;;26.67;16.97;;;;;;;;;;5115782;28;20229;-72
2022/03/24 06:37:20;;;;;;;22.97;16.60;;;;;;;;;;5114052;28;20257;-72
2022/03/24 06:39:48;;;;;;;25.77;16.43;;;;;;;;;;5103244;28;20696;-72
2022/03/24 06:42:19;;;;;;;28.27;17.67;;;;;;;;;;5112843;28;20723;-71
2022/03/24 06:44:47;;;;;;;26.60;17.13;;;;;;;;;;5103855;28;20236;-71
2022/03/24 06:47:15;;;;;;;22.97;16.07;;;;;;;;;;5112849;28;20317;-72
2022/03/24 06:49:44;;;;;;;31.40;19.27;;;;;;;;;;5115411;28;20289;-71
2022/03/24 06:52:12;;;;;;;26.70;17.40;;;;;;;;;;5106694;28;20284;-71
2022/03/24 06:54:40;;;;;;;25.53;17.97;;;;;;;;;;5112773;28;20659;-71
2022/03/24 06:57:14;;;;;;;29.47;16.63;;;;;;;;;;5115353;28;20252;-72
2022/03/24 06:59:43;;;;;;;23.37;17.13;;;;;;;;;;5114443;28;20775;-72
2022/03/24 07:02:11;;;;;;;25.63;16.73;;;;;;;;;;5106060;28;20300;-70
2022/03/24 07:04:39;;;;;;;27.57;17.93;;;;;;;;;;5105995;28;20215;-69
2022/03/24 07:07:08;;;;;;;31.17;17.80;;;;;;;;;;5113398;28;20268;-72
2022/03/24 07:09:36;;;;;;;25.20;17.30;;;;;;;;;;5119579;28;20262;-72
2022/03/24 07:12:04;;;;;;;30.30;19.97;;;;;;;;;;5114313;28;20280;-74
2022/03/24 07:14:32;;;;;;;33.33;21.47;;;;;;;;;;5106666;28;20628;-74
2022/03/24 07:17:02;;;;;;;33.47;22.47;;;;;;;;;;5118514;28;20255;-74
2022/03/24 07:19:30;;;;;;;31.73;20.33;;;;;;;;;;5105316;28;20603;-74
2022/03/24 07:21:58;;;;;;;35.30;22.40;;;;;;;;;;5110807;28;20328;-74
2022/03/24 07:24:26;;;;;;;32.00;21.57;;;;;;;;;;5111050;28;20225;-75
2022/03/24 07:26:54;;;;;;;36.97;22.47;;;;;;;;;;5113555;28;20263;-73
2022/03/24 07:29:24;;;;;;;37.50;22.60;;;;;;;;;;5109033;28;20240;-70
2022/03/24 07:31:52;;;;;;;28.90;20.23;;;;;;;;;;5109189;28;20209;-73
2022/03/24 07:34:21;;;;;;;32.13;21.57;;;;;;;;;;5105165;28;20288;-73
2022/03/24 07:36:49;;;;;;;33.97;21.10;;;;;;;;;;5114655;28;20564;-74
2022/03/24 07:39:25;;;;;;;33.60;20.00;;;;;;;;;;5104537;28;20232;-75
2022/03/24 07:41:53;;;;;;;28.03;18.50;;;;;;;;;;5103288;27;20204;-73
2022/03/24 07:44:21;;;;;;;28.47;17.67;;;;;;;;;;5115820;28;20211;-74
2022/03/24 07:46:50;;;;;;;31.40;17.57;;;;;;;;;;5111045;28;20275;-74
2022/03/24 07:49:18;;;;;;;29.47;16.27;;;;;;;;;;5117779;28;20200;-74
2022/03/24 07:51:47;;;;;;;24.53;16.20;;;;;;;;;;5111471;28;20218;-75
2022/03/24 07:54:15;;;;;;;29.73;16.87;;;;;;;;;;5113328;28;20258;-74
2022/03/24 07:56:43;;;;;;;27.57;17.63;;;;;;;;;;5107019;28;20221;-74
2022/03/24 07:59:12;;;;;;;30.67;17.73;;;;;;;;;;5121534;27;20239;-74
2022/03/24 08:01:40;;;;;;;31.50;17.10;;;;;;;;;;5105137;28;20201;-74
2022/03/24 08:04:08;;;;;;;21.93;15.20;;;;;;;;;;5103375;28;20207;-72
2022/03/24 08:06:36;;;;;;;26.80;15.13;;;;;;;;;;5111303;28;20273;-73
2022/03/24 08:09:05;;;;;;;24.87;14.00;;;;;;;;;;5102093;28;20228;-73
2022/03/24 08:11:33;;;;;;;29.37;14.30;;;;;;;;;;5109082;28;20197;-74
2022/03/24 08:14:01;;;;;;;20.00;13.43;;;;;;;;;;5104209;28;20209;-74
2022/03/24 08:16:30;;;;;;;22.17;12.77;;;;;;;;;;5113232;28;20253;-73
2022/03/24 08:18:58;;;;;;;20.87;13.30;;;;;;;;;;5103221;28;20205;-76
2022/03/24 08:21:26;;;;;;;24.77;12.50;;;;;;;;;;5113821;28;20635;-73
2022/03/24 08:23:54;;;;;;;18.83;11.30;;;;;;;;;;5117260;28;20228;-74
2022/03/24 08:26:24;;;;;;;19.27;11.30;;;;;;;;;;5116840;28;20229;-74
2022/03/24 08:28:56;;;;;;;22.80;12.77;;;;;;;;;;5113334;28;20193;-73
2022/03/24 08:31:25;;;;;;;25.40;13.90;;;;;;;;;;5114940;28;20584;-74
2022/03/24 08:33:53;;;;;;;21.23;12.67;;;;;;;;;;5101791;28;20202;-75
2022/03/24 08:36:22;;;;;;;22.23;13.13;;;;;;;;;;5108136;28;20260;-76
2022/03/24 08:38:49;;;;;;;19.37;12.43;;;;;;;;;;5108150;28;20680;-75
2022/03/24 08:41:18;;;;;;;20.37;13.70;;;;;;;;;;5113181;28;20258;-72
2022/03/24 08:43:47;;;;;;;27.03;12.87;;;;;;;;;;5108312;28;20292;-74
2022/03/24 08:46:15;;;;;;;27.70;12.90;;;;;;;;;;5116331;28;20685;-75
2022/03/24 08:48:43;;;;;;;22.80;13.37;;;;;;;;;;5108554;28;20215;-75
2022/03/24 08:51:13;;;;;;;20.40;13.17;;;;;;;;;;5105718;28;20569;-75
2022/03/24 08:54:03;;;;;;;24.83;14.23;;;;;;;;;;5115013;28;20224;-79
2022/03/24 08:56:31;;;;;;;22.90;13.07;;;;;;;;;;5114721;28;20308;-75
2022/03/24 08:59:02;;;;;;;18.73;11.87;;;;;;;;;;5114718;28;20646;-77
2022/03/24 09:01:30;;;;;;;22.77;12.77;;;;;;;;;;5104470;28;20233;-77
2022/03/24 09:03:58;;;;;;;17.30;10.60;;;;;;;;;;5108391;28;20711;-77
2022/03/24 09:06:26;;;;;;;18.47;10.37;;;;;;;;;;5106181;28;20228;-77
2022/03/24 09:08:54;;;;;;;15.87;10.50;;;;;;;;;;5105451;28;20225;-77
2022/03/24 09:11:22;;;;;;;15.17;10.53;;;;;;;;;;5101312;28;20254;-77
2022/03/24 09:13:51;;;;;;;22.80;10.83;;;;;;;;;;5100635;28;20203;-77
2022/03/24 09:16:21;;;;;;;16.60;10.50;;;;;;;;;;5105753;28;20252;-77
2022/03/24 09:18:49;;;;;;;17.43;10.00;;;;;;;;;;5108802;28;20193;-77
2022/03/24 09:21:18;;;;;;;13.70;9.80;;;;;;;;;;5116950;28;20236;-77
2022/03/24 09:23:47;;;;;;;20.13;10.10;;;;;;;;;;5116705;28;20288;-77
2022/03/24 09:26:15;;;;;;;16.10;10.33;;;;;;;;;;5101190;28;20221;-77
2022/03/24 09:28:57;;;;;;;14.03;10.30;;;;;;;;;;5105636;28;20304;-77
2022/03/24 09:31:26;;;;;;;13.90;10.03;;;;;;;;;;5108598;28;20280;-76
2022/03/24 09:33:54;;;;;;;15.10;10.33;;;;;;;;;;5112458;28;20200;-77
2022/03/24 09:36:23;;;;;;;21.07;9.63;;;;;;;;;;5108704;28;20263;-77
2022/03/24 09:38:51;;;;;;;17.37;10.77;;;;;;;;;;5116183;28;20216;-77
2022/03/24 09:41:19;;;;;;;16.17;9.77;;;;;;;;;;5107007;28;20294;-77
2022/03/24 09:43:47;;;;;;;18.50;10.07;;;;;;;;;;5114271;28;20240;-77
2022/03/24 09:46:17;;;;;;;17.93;10.20;;;;;;;;;;5113412;28;20250;-77
2022/03/24 09:48:47;;;;;;;17.10;10.63;;;;;;;;;;5105493;28;20231;-77
2022/03/24 09:51:15;;;;;;;15.53;10.23;;;;;;;;;;5102618;28;20610;-77
2022/03/24 09:53:43;;;;;;;17.77;10.10;;;;;;;;;;5111978;28;20220;-77
2022/03/24 09:56:12;;;;;;;16.07;9.60;;;;;;;;;;5106045;28;20269;-77
2022/03/24 09:58:42;;;;;;;17.87;10.57;;;;;;;;;;5108172;28;20307;-77
2022/03/24 10:01:17;;;;;;;14.67;9.67;;;;;;;;;;5108048;28;20630;-75
2022/03/24 10:04:00;;;;;;;15.83;10.10;;;;;;;;;;5112698;28;20606;-74
2022/03/24 10:06:30;;;;;;;17.70;11.00;;;;;;;;;;5119914;28;20213;-74
2022/03/24 10:08:58;;;;;;;16.60;9.87;;;;;;;;;;5115523;28;20255;-74
2022/03/24 10:11:26;;;;;;;13.87;9.47;;;;;;;;;;5119662;28;20608;-74
2022/03/24 10:13:55;;;;;;;16.07;10.43;;;;;;;;;;5117921;28;20232;-76
2022/03/24 10:16:43;;;;;;;15.47;10.30;;;;;;;;;;5118520;28;20255;-75
2022/03/24 10:19:16;;;;;;;21.43;10.57;;;;;;;;;;5114417;28;20193;-76
2022/03/24 10:21:46;;;;;;;14.17;9.70;;;;;;;;;;5116155;28;20225;-75
2022/03/24 10:24:16;;;;;;;17.43;10.40;;;;;;;;;;5115140;28;20280;-76
2022/03/24 10:26:45;;;;;;;19.83;11.60;;;;;;;;;;5115558;28;20244;-75
2022/03/24 10:29:14;;;;;;;17.20;9.97;;;;;;;;;;5120264;28;20252;-75
2022/03/24 10:31:43;;;;;;;18.77;10.43;;;;;;;;;;5119910;28;20284;-75
2022/03/24 10:34:12;;;;;;;18.37;10.20;;;;;;;;;;5112846;27;20207;-75
2022/03/24 10:36:42;;;;;;;19.20;11.37;;;;;;;;;;5103245;28;20222;-75
2022/03/24 10:39:11;;;;;;;22.00;10.30;;;;;;;;;;5106962;28;20281;-74
2022/03/24 10:41:39;;;;;;;19.93;11.07;;;;;;;;;;5107589;28;20288;-76
2022/03/24 10:44:09;;;;;;;19.00;10.50;;;;;;;;;;5120841;28;20236;-75
2022/03/24 10:46:38;;;;;;;18.37;10.73;;;;;;;;;;5120856;28;20300;-73
2022/03/24 10:49:17;;;;;;;20.60;11.17;;;;;;;;;;5116633;28;20225;-75
2022/03/24 10:51:46;;;;;;;18.37;11.07;;;;;;;;;;5103131;28;20284;-74
2022/03/24 10:54:19;;;;;;;19.30;11.67;;;;;;;;;;5115162;28;20258;-74
2022/03/24 10:56:48;;;;;;;19.13;10.77;;;;;;;;;;5111838;28;20707;-74
2022/03/24 10:59:16;;;;;;;19.57;10.63;;;;;;;;;;5113873;28;20304;-77
2022/03/24 11:01:44;;;;;;;19.37;10.87;;;;;;;;;;5112120;28;20283;-74
2022/03/24 11:04:12;;;;;;;19.50;10.93;;;;;;;;;;5117017;28;20197;-74
2022/03/24 11:06:48;;;;;;;21.57;11.27;;;;;;;;;;5119147;28;20248;-75
2022/03/24 11:09:23;;;;;;;20.53;11.20;;;;;;;;;;5115653;28;20216;-75
2022/03/24 11:12:05;;;;;;;20.70;11.13;;;;;;;;;;5113453;28;20231;-74
2022/03/24 11:14:39;;;;;;;19.60;10.87;;;;;;;;;;5104839;28;20243;-75
2022/03/24 11:17:07;;;;;;;18.37;10.53;;;;;;;;;;5116607;28;20228;-76
2022/03/24 11:19:35;;;;;;;17.87;10.93;;;;;;;;;;5117967;28;20683;-76
2022/03/24 11:22:03;;;;;;;16.33;10.90;;;;;;;;;;5113958;28;20254;-77
2022/03/24 11:24:34;;;;;;;17.33;10.07;;;;;;;;;;5117441;28;20260;-76
2022/03/24 11:27:02;;;;;;;20.63;11.47;;;;;;;;;;5117383;28;20251;-75
2022/03/24 11:29:31;;;;;;;17.90;10.27;;;;;;;;;;5119136;28;20308;-75
2022/03/24 11:31:59;;;;;;;18.07;11.30;;;;;;;;;;5117161;28;21443;-75
2022/03/24 11:34:28;;;;;;;16.70;10.43;;;;;;;;;;5116074;28;20224;-76
2022/03/24 11:36:56;;;;;;;20.80;11.53;;;;;;;;;;5118977;28;20303;-76
2022/03/24 11:39:24;;;;;;;17.47;11.07;;;;;;;;;;5112690;28;20221;-76
2022/03/24 11:41:55;;;;;;;21.63;11.03;;;;;;;;;;5116126;28;20631;-76
2022/03/24 11:44:30;;;;;;;20.13;10.80;;;;;;;;;;5112224;28;20248;-76
2022/03/24 11:47:00;;;;;;;17.30;11.03;;;;;;;;;;5119027;28;20303;-76
2022/03/24 11:49:28;;;;;;;16.43;9.93;;;;;;;;;;5114699;28;20221;-75
2022/03/24 11:52:15;;;;;;;17.70;10.93;;;;;;;;;;5115788;28;20198;-77
2022/03/24 11:54:52;;;;;;;17.67;11.33;;;;;;;;;;5114666;28;20225;-77
2022/03/24 11:57:41;;;;;;;21.67;11.57;;;;;;;;;;5115158;28;20278;-76
2022/03/24 12:00:28;;;;;;;21.57;11.00;;;;;;;;;;5110995;28;20267;-76
2022/03/24 12:03:00;;;;;;;20.03;10.20;;;;;;;;;;5116203;28;20283;-76
2022/03/24 12:05:42;;;;;;;20.10;11.10;;;;;;;;;;5113817;28;20253;-77
2022/03/24 12:08:10;;;;;;;21.50;10.37;;;;;;;;;;5115078;28;20283;-77
2022/03/24 12:10:39;;;;;;;15.27;10.23;;;;;;;;;;5114404;28;20197;-75
2022/03/24 12:13:19;;;;;;;20.03;11.27;;;;;;;;;;5112595;28;20224;-76
2022/03/24 12:16:02;;;;;;;19.73;11.60;;;;;;;;;;5113424;28;20221;-77
2022/03/24 12:18:41;;;;;;;17.70;10.73;;;;;;;;;;5113955;28;20226;-75
2022/03/24 12:21:09;;;;;;;18.77;11.00;;;;;;;;;;5112069;28;20197;-75
2022/03/24 12:23:52;;;;;;;19.07;11.23;;;;;;;;;;5113004;28;20236;-78
2022/03/24 12:26:20;;;;;;;23.60;12.57;;;;;;;;;;5106785;28;20653;-76
2022/03/24 12:29:08;;;;;;;14.80;10.17;;;;;;;;;;5114269;28;20272;-73
2022/03/24 12:31:42;;;;;;;21.67;11.03;;;;;;;;;;5111085;28;20279;-74
2022/03/24 12:34:15;;;;;;;19.70;12.00;;;;;;;;;;5112661;28;20263;-74
2022/03/24 12:36:43;;;;;;;20.47;11.40;;;;;;;;;;5116911;28;20267;-75
2022/03/24 12:39:11;;;;;;;18.00;12.10;;;;;;;;;;5114931;28;20250;-80
2022/03/24 12:41:40;;;;;;;19.10;11.47;;;;;;;;;;5117560;28;20204;-80
2022/03/24 12:44:09;;;;;;;19.30;11.30;;;;;;;;;;5104116;28;20650;-77
2022/03/24 12:46:42;;;;;;;18.77;10.70;;;;;;;;;;5109171;28;20237;-76
2022/03/24 12:49:34;;;;;;;17.50;11.33;;;;;;;;;;5116602;28;20216;-76
2022/03/24 12:52:07;;;;;;;17.67;10.50;;;;;;;;;;5105979;28;20219;-65
2022/03/24 12:54:43;;;;;;;20.27;12.13;;;;;;;;;;5107238;28;20676;-65
2022/03/24 12:57:21;;;;;;;19.00;11.90;;;;;;;;;;5114703;28;20669;-66
2022/03/24 12:59:49;;;;;;;23.40;12.03;;;;;;;;;;5114344;28;20248;-66
2022/03/24 13:02:17;;;;;;;21.77;11.87;;;;;;;;;;5112048;28;20197;-67
2022/03/24 13:04:51;;;;;;;21.40;11.97;;;;;;;;;;5113986;28;20220;-67
2022/03/24 13:07:21;;;;;;;16.67;10.40;;;;;;;;;;5108509;28;20764;-67
2022/03/24 13:10:06;;;;;;;21.23;11.10;;;;;;;;;;5116475;28;20224;-73
2022/03/24 13:12:34;;;;;;;18.90;10.27;;;;;;;;;;5105227;28;20679;-73
2022/03/24 13:15:03;;;;;;;21.20;10.60;;;;;;;;;;5108539;28;20280;-73
2022/03/24 13:17:32;;;;;;;18.53;10.27;;;;;;;;;;5110948;28;20618;-73
2022/03/24 13:20:05;;;;;;;18.30;10.10;;;;;;;;;;5114978;28;20203;-75
2022/03/24 13:22:34;;;;;;;20.00;9.93;;;;;;;;;;5113072;28;20228;-73
2022/03/24 13:25:03;;;;;;;15.03;10.03;;;;;;;;;;5111219;28;20401;-74
2022/03/24 13:27:33;;;;;;;22.37;10.87;;;;;;;;;;5107485;28;20283;-73
2022/03/24 13:30:04;;;;;;;15.00;9.77;;;;;;;;;;5100650;28;20320;-74
2022/03/24 13:32:32;;;;;;;17.77;8.97;;;;;;;;;;5100704;28;20202;-74
2022/03/24 13:35:00;;;;;;;16.97;9.70;;;;;;;;;;5105239;28;20357;-74
2022/03/24 13:37:33;;;;;;;24.50;10.43;;;;;;;;;;5105732;28;20224;-74
2022/03/24 13:40:04;;;;;;;18.50;10.60;;;;;;;;;;5108998;28;20243;-75
2022/03/24 13:42:32;;;;;;;17.33;9.93;;;;;;;;;;5106799;28;20224;-75
2022/03/24 13:45:00;;;;;;;14.17;9.50;;;;;;;;;;5114738;28;20423;-74
2022/03/24 13:47:29;;;;;;;14.87;8.90;;;;;;;;;;5116454;28;20698;-74
2022/03/24 13:49:58;;;;;;;16.37;9.27;;;;;;;;;;5116222;28;20308;-73
2022/03/24 13:52:36;;;;;;;14.13;8.93;;;;;;;;;;5108481;28;20287;-72
2022/03/24 13:55:11;;;;;;;19.37;9.70;;;;;;;;;;5113540;28;20288;-75
2022/03/24 13:57:53;;;;;;;15.37;9.70;;;;;;;;;;5106468;28;20228;-72
2022/03/24 14:00:28;;;;;;;18.03;9.47;;;;;;;;;;5116390;28;20228;-74
2022/03/24 14:02:58;;;;;;;13.53;8.83;;;;;;;;;;5107900;28;20270;-73
2022/03/24 14:05:42;;;;;;;14.20;9.07;;;;;;;;;;5103572;28;20251;-73
2022/03/24 14:08:10;;;;;;;15.83;9.83;;;;;;;;;;5105737;28;20235;-74
2022/03/24 14:10:49;;;;;;;13.77;9.20;;;;;;;;;;5109941;28;20764;-73
2022/03/24 14:13:19;;;;;;;14.27;8.60;;;;;;;;;;5110132;28;20261;-74
2022/03/24 14:15:47;;;;;;;19.03;9.67;;;;;;;;;;5101426;28;20324;-74
2022/03/24 14:18:19;;;;;;;21.33;9.17;;;;;;;;;;5115944;28;20672;-73
2022/03/24 14:20:48;;;;;;;16.70;9.40;;;;;;;;;;5116224;28;20308;-73
2022/03/24 14:23:26;;;;;;;20.20;10.37;;;;;;;;;;5108248;28;20220;-73
2022/03/24 14:26:00;;;;;;;12.77;9.20;;;;;;;;;;5115817;28;20243;-75
2022/03/24 14:28:32;;;;;;;16.47;10.00;;;;;;;;;;5111937;28;20631;-75
2022/03/24 14:31:04;;;;;;;18.00;9.07;;;;;;;;;;5105067;28;20802;-75
2022/03/24 14:33:43;;;;;;;25.07;9.83;;;;;;;;;;5109769;28;20254;-74
2022/03/24 14:36:12;;;;;;;17.87;10.60;;;;;;;;;;5115795;28;20636;-75
2022/03/24 14:38:40;;;;;;;14.53;9.77;;;;;;;;;;5104110;28;20198;-75